メインページ
METAR-TAF:

METAR-TAF

空港 :

平壌国際空港

平壌, 朝鮮民主主義人民共和国

緯度: 39-02N, 経度: 125-47E, 海抜: 36m

METAR: 見つかりません

時間: 12:34 (04:04 UTC)

予報

当レポートは8時間24分前の19:40(UTC)に作成
予報は22日の 00時(UTC)から 22日の 24時(UTC)まで有効
南東の風 6kt
視程10km以上
1,500メートル以下は雲なし、積乱雲なし
22日の 03時(UTC)から 22日の 05時(UTC)まで徐々に
高度2300ftの曇り
小雨
22日の 06時(UTC)から 22日の 12時(UTC)まで一時的に
高度1000ftの雲は散在している, 積乱雲.
高度1700ftの千切れ雲あり
激しい雷雨, 小雨

TAF: ZKPY 211940Z 2200/2224 14003MPS CAVOK TX17/2206Z TN09/2221Z BECMG 2203/2205 -RA OVC023 TEMPO 2206/2212 -TSRA SCT010CB BKN017

4,000以上の空港の気象観測と天気予報(METAR報とTAF報)

利用可能な観測所は地図上に黄色い丸と赤い丸で示す。

丸の上にカーソルを重ねると観測所名を参照できる。

次にクリックすると気象観測と天気予報を参照できる。

マップの切り替え:黒色「×」印の緑ボタンをクリックして拡大、「-」印の緑ボタンをクリックして縮小、緑色の三角印をクリックして隣りの地図に切り替え


METAR-TAF: